| time (UTC) | temp C | wind direction | speed KPH | gust KPH | rain 1hr cm | rain 24hr cm | rain mn cm | humidity % | barometer mb |
| 20260906075648 | 10 | 335 | 17.7 | 22.5 | 0.00 | 0.10 | 0.00 | 69 | 1008.9 |
| 20260906074958 | 9 | 338 | 19.3 | 27.4 | 0.00 | 0.10 | 0.00 | 73 | 1008.6 |
| 20260906073848 | 9 | 322 | 16.1 | 25.7 | 0.00 | 0.10 | 0.00 | 75 | 1008.5 |
| 20260906072948 | 8 | 319 | 16.1 | 25.7 | 0.00 | 0.10 | 0.00 | 77 | 1008.4 |
| 20260906072048 | 9 | 313 | 17.7 | 24.1 | 0.00 | 0.10 | 0.00 | 76 | 1008.3 |
| 20260906071148 | 10 | 332 | 16.1 | 24.1 | 0.00 | 0.10 | 0.00 | 72 | 1008.2 |
| 20260906070248 | 9 | 323 | 19.3 | 25.7 | 0.00 | 0.10 | 0.00 | 72 | 1008.1 |
| 20260906065557 | 9 | 322 | 16.1 | 25.7 | 0.00 | 0.10 | 0.00 | 72 | 1008.0 |
| 20260906064448 | 10 | 342 | 11.3 | 17.7 | 0.00 | 0.10 | 0.00 | 77 | 1007.9 |
| 20260906063548 | 8 | 317 | 12.9 | 20.9 | 0.00 | 0.10 | 0.00 | 81 | 1007.8 |
| 20260906062859 | 8 | 317 | 14.5 | 17.7 | 0.00 | 0.10 | 0.00 | 81 | 1007.5 |
| 20260906061748 | 9 | 327 | 12.9 | 14.5 | 0.00 | 0.10 | 0.00 | 81 | 1007.4 |
| 20260906060848 | 9 | 307 | 11.3 | 14.5 | 0.00 | 0.10 | 0.00 | 81 | 1007.4 |
| 20260906055948 | 9 | 314 | 8.0 | 11.3 | 0.00 | 0.10 | 0.00 | 85 | 1007.3 |
| 20260906055259 | 8 | 320 | 8.0 | 11.3 | 0.00 | 0.10 | 0.00 | 87 | 1007.1 |
| 20260906054148 | 8 | 318 | 8.0 | 11.3 | 0.00 | 0.10 | 0.00 | 87 | 1007.2 |
| 20260906053248 | 8 | 323 | 9.7 | 14.5 | 0.00 | 0.10 | 0.00 | 87 | 1007.0 |
| 20260906052348 | 8 | 310 | 9.7 | 11.3 | 0.00 | 0.10 | 0.00 | 87 | 1006.9 |
| 20260906051448 | 8 | 321 | 8.0 | 12.9 | 0.00 | 0.10 | 0.00 | 87 | 1006.7 |
| 20260906050548 | 8 | 319 | 9.7 | 11.3 | 0.00 | 0.10 | 0.00 | 87 | 1006.9 |
| 20260906045648 | 7 | 321 | 9.7 | 11.3 | 0.00 | 0.10 | 0.00 | 88 | 1006.8 |
| 20260906045000 | 7 | 323 | 8.0 | 11.3 | 0.00 | 0.10 | 0.00 | 89 | 1006.7 |
| 20260906044058 | 7 | 316 | 8.0 | 11.3 | 0.00 | 0.10 | 0.00 | 89 | 1006.5 |
| 20260906042948 | 7 | 310 | 8.0 | 11.3 | 0.00 | 0.10 | 0.00 | 89 | 1006.4 |
| 20260906042048 | 7 | 329 | 9.7 | 12.9 | 0.00 | 0.10 | 0.00 | 89 | 1006.1 |
| 20260906041148 | 7 | 322 | 6.4 | 11.3 | 0.00 | 0.10 | 0.00 | 90 | 1005.9 |
| 20260906040248 | 7 | 318 | 9.7 | 12.9 | 0.00 | 0.10 | 0.00 | 89 | 1006.2 |
| 20260906035559 | 7 | 306 | 9.7 | 12.9 | 0.00 | 0.10 | 0.00 | 90 | 1006.1 |
| 20260906034448 | 7 | 310 | 8.0 | 11.3 | 0.00 | 0.10 | 0.00 | 90 | 1005.9 |
| 20260906033548 | 7 | 312 | 8.0 | 11.3 | 0.00 | 0.10 | 0.00 | 91 | 1005.8 |
| 20260906032648 | 7 | 310 | 9.7 | 12.9 | 0.00 | 0.10 | 0.00 | 92 | 1005.8 |
| 20260906031748 | 7 | 319 | 8.0 | 9.7 | 0.00 | 0.10 | 0.00 | 92 | 1005.7 |
| 20260906030848 | 7 | 303 | 8.0 | 11.3 | 0.00 | 0.10 | 0.00 | 91 | 1005.7 |
| 20260906025948 | 7 | 308 | 6.4 | 9.7 | 0.00 | 0.10 | 0.00 | 92 | 1005.4 |
| 20260906025048 | 7 | 305 | 6.4 | 11.3 | 0.00 | 0.10 | 0.00 | 92 | 1005.6 |
| 20260906024148 | 7 | 313 | 6.4 | 9.7 | 0.00 | 0.10 | 0.00 | 93 | 1005.5 |
| 20260906023248 | 7 | 310 | 6.4 | 9.7 | 0.00 | 0.10 | 0.00 | 94 | 1005.5 |
| 20260906022348 | 7 | 304 | 8.0 | 9.7 | 0.00 | 0.10 | 0.00 | 94 | 1005.2 |
| 20260906021700 | 7 | 301 | 6.4 | 11.3 | 0.00 | 0.10 | 0.00 | 95 | 1005.4 |
| 20260906020548 | 7 | 312 | 8.0 | 11.3 | 0.00 | 0.10 | 0.00 | 95 | 1005.3 |
| 20260906015648 | 7 | 312 | 8.0 | 9.7 | 0.00 | 0.10 | 0.00 | 95 | 1005.1 |
| 20260906014748 | 7 | 316 | 6.4 | 9.7 | 0.00 | 0.10 | 0.00 | 96 | 1005.1 |
| 20260906013848 | 7 | 310 | 8.0 | 11.3 | 0.00 | 0.10 | 0.00 | 95 | 1004.9 |
| 20260906012948 | 7 | 308 | 8.0 | 12.9 | 0.00 | 0.10 | 0.00 | 96 | 1004.8 |
| 20260906012048 | 7 | 304 | 6.4 | 9.7 | 0.00 | 0.10 | 0.00 | 96 | 1004.7 |
| 20260906011402 | 7 | 311 | 6.4 | 6.4 | 0.00 | 0.10 | 0.00 | 96 | 1004.6 |
| 20260906010248 | 7 | 301 | 8.0 | 9.7 | 0.00 | 0.10 | 0.00 | 97 | 1004.5 |
| 20260906005348 | 7 | 301 | 6.4 | 9.7 | 0.00 | 0.10 | 0.00 | 97 | 1004.6 |
| 20260906004448 | 7 | 305 | 6.4 | 9.7 | 0.00 | 0.10 | 0.00 | 97 | 1004.5 |
| 20260906003548 | 7 | 305 | 6.4 | 9.7 | 0.00 | 0.10 | 0.00 | 97 | 1004.5 |
| 20260906002648 | 7 | 302 | 4.8 | 9.7 | 0.00 | 0.10 | 0.00 | 97 | 1004.4 |
| 20260906002001 | 7 | 303 | 6.4 | 9.7 | 0.00 | 0.10 | 0.00 | 97 | 1004.4 |
| 20260906000848 | 7 | 305 | 4.8 | 9.7 | 0.00 | 0.10 | 0.00 | 97 | 1004.3 |
| 20260905235948 | 7 | 303 | 6.4 | 9.7 | 0.00 | 0.10 | 0.00 | 97 | 1004.3 |
| 20260905235048 | 7 | 294 | 4.8 | 6.4 | 0.00 | 0.10 | 0.00 | 96 | 1004.4 |
| 20260905234148 | 8 | 304 | 6.4 | 9.7 | 0.00 | 0.10 | 0.00 | 96 | 1004.1 |
| 20260905233248 | 8 | 295 | 4.8 | 6.4 | 0.00 | 0.10 | 0.00 | 97 | 1004.2 |
| 20260905232348 | 8 | 307 | 4.8 | 6.4 | 0.00 | 0.10 | 0.00 | 97 | 1004.1 |
| 20260905231448 | 8 | 302 | 6.4 | 9.7 | 0.00 | 0.10 | 0.00 | 97 | 1004.1 |
| 20260905230548 | 8 | 294 | 4.8 | 6.4 | 0.00 | 0.10 | 0.00 | 97 | 1004.2 |
| 20260905225648 | 8 | 316 | 4.8 | 6.4 | 0.00 | 0.10 | 0.00 | 97 | 1003.8 |
| 20260905224748 | 8 | 328 | 3.2 | 6.4 | 0.00 | 0.10 | 0.00 | 97 | 1003.9 |
| 20260905223848 | 8 | 316 | 6.4 | 9.7 | 0.00 | 0.10 | 0.00 | 97 | 1004.0 |
| 20260905222948 | 8 | 315 | 6.4 | 9.7 | 0.00 | 0.10 | 0.00 | 97 | 1004.0 |
| 20260905222301 | 8 | 312 | 6.4 | 9.7 | 0.00 | 0.10 | 0.00 | 97 | 1003.8 |
| 20260905221148 | 8 | 325 | 4.8 | 6.4 | 0.00 | 0.10 | 0.00 | 97 | 1003.9 |
| 20260905220248 | 8 | 322 | 8.0 | 11.3 | 0.00 | 0.10 | 0.00 | 97 | 1003.7 |
| 20260905215558 | 8 | 325 | 9.7 | 12.9 | 0.00 | 0.10 | 0.00 | 96 | 1003.6 |
| 20260905214701 | 8 | 331 | 8.0 | 12.9 | 0.00 | 0.10 | 0.00 | 96 | 1003.7 |
| 20260905213758 | 8 | 324 | 9.7 | 12.9 | 0.00 | 0.10 | 0.00 | 96 | 1003.9 |
| 20260905212648 | 8 | 317 | 9.7 | 14.5 | 0.00 | 0.10 | 0.00 | 95 | 1003.4 |
| 20260905211957 | 8 | 318 | 9.7 | 14.5 | 0.00 | 0.10 | 0.00 | 94 | 1003.6 |
| 20260905210848 | 8 | 315 | 8.0 | 12.9 | 0.00 | 0.10 | 0.00 | 94 | 1003.4 |
| 20260905205948 | 8 | 316 | 9.7 | 12.9 | 0.00 | 0.10 | 0.10 | 94 | 1003.2 |
| 20260905205048 | 8 | 323 | 8.0 | 11.3 | 0.00 | 0.10 | 0.10 | 94 | 1003.2 |
| 20260905204148 | 8 | 316 | 8.0 | 11.3 | 0.00 | 0.10 | 0.10 | 94 | 1003.1 |
| 20260905203459 | 8 | 315 | 6.4 | 11.3 | 0.00 | 0.10 | 0.10 | 94 | 1003.0 |
| 20260905202602 | 8 | 325 | 8.0 | 12.9 | 0.00 | 0.10 | 0.10 | 94 | 1003.0 |
| 20260905201448 | 8 | 315 | 9.7 | 14.5 | 0.00 | 0.10 | 0.10 | 94 | 1002.8 |
| 20260905200801 | 8 | 316 | 9.7 | 11.3 | 0.00 | 0.10 | 0.10 | 94 | 1002.8 |
| 20260905195648 | 8 | 323 | 6.4 | 6.4 | 0.00 | 0.10 | 0.10 | 94 | 1002.7 |
| 20260905194753 | 8 | 319 | 8.0 | 12.9 | 0.00 | 0.10 | 0.10 | 94 | 1002.7 |
| 20260905193848 | 8 | 324 | 9.7 | 14.5 | 0.00 | 0.10 | 0.10 | 93 | 1002.4 |
| 20260905192948 | 8 | 318 | 9.7 | 11.3 | 0.00 | 0.10 | 0.10 | 93 | 1002.3 |
| 20260905192048 | 8 | 325 | 9.7 | 11.3 | 0.00 | 0.10 | 0.10 | 93 | 1002.6 |
| 20260905191400 | 8 | 323 | 8.0 | 11.3 | 0.00 | 0.10 | 0.10 | 93 | 1002.5 |
| 20260905190248 | 9 | 321 | 8.0 | 11.3 | 0.00 | 0.10 | 0.10 | 93 | 1002.5 |
| 20260905185600 | 9 | 320 | 8.0 | 11.3 | 0.00 | 0.10 | 0.10 | 92 | 1002.3 |
| 20260905184448 | 9 | 323 | 9.7 | 14.5 | 0.00 | 0.10 | 0.10 | 92 | 1002.3 |
| 20260905183800 | 9 | 339 | 11.3 | 14.5 | 0.00 | 0.10 | 0.10 | 92 | 1002.1 |
| 20260905182648 | 9 | 323 | 11.3 | 12.9 | 0.00 | 0.10 | 0.10 | 92 | 1002.2 |
| 20260905181748 | 9 | 324 | 8.0 | 14.5 | 0.00 | 0.10 | 0.10 | 92 | 1002.1 |
| 20260905180848 | 9 | 314 | 8.0 | 11.3 | 0.00 | 0.10 | 0.10 | 92 | 1002.1 |
| 20260905180159 | 9 | 322 | 8.0 | 9.7 | 0.00 | 0.10 | 0.10 | 92 | 1002.0 |
| 20260905175048 | 9 | 321 | 8.0 | 12.9 | 0.00 | 0.10 | 0.10 | 92 | 1002.0 |
| 20260905174148 | 9 | 326 | 8.0 | 14.5 | 0.00 | 0.10 | 0.10 | 91 | 1001.7 |
| 20260905173501 | 9 | 340 | 9.7 | 14.5 | 0.00 | 0.10 | 0.10 | 91 | 1001.6 |
| 20260905172348 | 9 | 317 | 8.0 | 12.9 | 0.00 | 0.10 | 0.10 | 90 | 1001.7 |
| 20260905171448 | 9 | 322 | 6.4 | 17.7 | 0.00 | 0.10 | 0.10 | 90 | 1001.4 |
| 20260905170758 | 10 | 336 | 6.4 | 11.3 | 0.00 | 0.10 | 0.10 | 89 | 1001.4 |
| 20260905165900 | 10 | 324 | 8.0 | 12.9 | 0.00 | 0.10 | 0.10 | 88 | 1001.0 |
| 20260905164748 | 10 | 167 | 27.4 | 82.1 | 0.00 | 0.10 | 0.10 | 88 | 1001.2 |
| 20260905164100 | 10 | 157 | 75.6 | 82.1 | 0.00 | 0.10 | 0.10 | 88 | 1001.0 |
| 20260905163158 | 10 | 158 | 66.0 | 82.1 | 0.00 | 0.10 | 0.10 | 14 | 1000.7 |
| 20260905162300 | 10 | 318 | 16.1 | 24.1 | 0.00 | 0.10 | 0.10 | 88 | 1000.9 |
| 20260905161148 | 10 | 320 | 12.9 | 20.9 | 0.00 | 0.10 | 0.10 | 87 | 1000.9 |
| 20260905160248 | 10 | 328 | 14.5 | 17.7 | 0.00 | 0.10 | 0.10 | 86 | 1000.7 |
| 20260905155348 | 10 | 343 | 14.5 | 17.7 | 0.00 | 0.10 | 0.10 | 85 | 1000.5 |
| 20260905154448 | 11 | 329 | 16.1 | 24.1 | 0.00 | 0.10 | 0.10 | 85 | 1000.6 |
| 20260905153548 | 11 | 329 | 12.9 | 20.9 | 0.00 | 0.13 | 0.10 | 85 | 1000.4 |
| 20260905152859 | 11 | 328 | 14.5 | 24.1 | 0.00 | 0.13 | 0.10 | 81 | 1000.2 |
| 20260905151748 | 11 | 301 | 12.9 | 17.7 | 0.00 | 0.15 | 0.10 | 81 | 1000.2 |
| 20260905150848 | 11 | 316 | 12.9 | 17.7 | 0.00 | 0.15 | 0.10 | 83 | 1000.1 |
| 20260905145948 | 11 | 318 | 11.3 | 14.5 | 0.00 | 0.15 | 0.10 | 87 | 999.8 |
| 20260905145048 | 11 | 319 | 14.5 | 22.5 | 0.00 | 0.15 | 0.10 | 88 | 999.8 |
| 20260905144148 | 11 | 320 | 12.9 | 17.7 | 0.00 | 0.15 | 0.10 | 87 | 999.4 |
| 20260905143248 | 11 | 329 | 19.3 | 22.5 | 0.00 | 0.15 | 0.10 | 86 | 999.8 |
| 20260905142348 | 11 | 315 | 14.5 | 17.7 | 0.00 | 0.15 | 0.10 | 84 | 999.5 |
| 20260905141658 | 12 | 321 | 14.5 | 17.7 | 0.00 | 0.15 | 0.10 | 84 | 999.4 |
| 20260905140548 | 12 | 333 | 14.5 | 25.7 | 0.00 | 0.15 | 0.10 | 86 | 998.8 |
| 20260905135857 | 11 | 319 | 16.1 | 25.7 | 0.00 | 0.15 | 0.10 | 85 | 999.1 |
| 20260905134748 | 11 | 312 | 16.1 | 22.5 | 0.00 | 0.15 | 0.10 | 85 | 999.0 |
| 20260905133848 | 11 | 328 | 16.1 | 17.7 | 0.00 | 0.15 | 0.10 | 86 | 998.8 |
| 20260905132948 | 11 | 324 | 12.9 | 17.7 | 0.00 | 0.15 | 0.10 | 87 | 999.0 |
| 20260905132048 | 11 | 297 | 9.7 | 17.7 | 0.00 | 0.15 | 0.10 | 88 | 999.0 |
| 20260905131148 | 12 | 334 | 9.7 | 12.9 | 0.00 | 0.15 | 0.10 | 85 | 998.8 |
| 20260905130248 | 12 | 311 | 9.7 | 14.5 | 0.00 | 0.15 | 0.10 | 86 | 998.8 |
| 20260905125559 | 11 | 322 | 16.1 | 22.5 | 0.00 | 0.15 | 0.10 | 88 | 998.5 |
| 20260905124448 | 13 | 339 | 9.7 | 22.5 | 0.00 | 0.15 | 0.10 | 81 | 998.4 |
| 20260905123758 | 13 | 326 | 11.3 | 20.9 | 0.00 | 0.15 | 0.10 | 81 | 998.1 |
| 20260905122648 | 12 | 309 | 16.1 | 24.1 | 0.00 | 0.15 | 0.10 | 84 | 998.3 |
| 20260905121748 | 12 | 304 | 14.5 | 20.9 | 0.00 | 0.15 | 0.10 | 85 | 998.1 |
| 20260905121101 | 13 | 312 | 12.9 | 17.7 | 0.00 | 0.15 | 0.10 | 83 | 997.9 |
| 20260905115948 | 13 | 307 | 17.7 | 25.7 | 0.00 | 0.15 | 0.10 | 83 | 997.7 |
| 20260905115300 | 13 | 317 | 14.5 | 20.9 | 0.00 | 0.15 | 0.10 | 79 | 997.5 |
| 20260905114148 | 13 | 348 | 14.5 | 17.7 | 0.00 | 0.15 | 0.10 | 79 | 997.6 |
| 20260905113248 | 13 | 337 | 11.3 | 17.7 | 0.00 | 0.15 | 0.10 | 83 | 997.7 |
| 20260905112348 | 13 | 320 | 12.9 | 20.9 | 0.00 | 0.15 | 0.10 | 83 | 997.4 |
| 20260905111448 | 13 | 323 | 9.7 | 20.9 | 0.00 | 0.15 | 0.10 | 83 | 997.3 |
| 20260905110548 | 13 | 320 | 12.9 | 22.5 | 0.00 | 0.15 | 0.10 | 83 | 997.4 |
| 20260905105648 | 13 | 315 | 9.7 | 17.7 | 0.00 | 0.15 | 0.10 | 85 | 997.3 |
| 20260905104748 | 12 | 338 | 9.7 | 17.7 | 0.00 | 0.15 | 0.10 | 88 | 997.4 |
| 20260905103848 | 12 | 333 | 12.9 | 17.7 | 0.00 | 0.15 | 0.10 | 89 | 997.1 |
| 20260905102948 | 12 | 314 | 16.1 | 17.7 | 0.00 | 0.15 | 0.10 | 91 | 997.1 |
| 20260905102258 | 12 | 319 | 14.5 | 20.9 | 0.00 | 0.15 | 0.10 | 91 | 997.1 |
| 20260905101148 | 12 | 335 | 16.1 | 22.5 | 0.00 | 0.15 | 0.10 | 90 | 996.9 |
| 20260905100248 | 12 | 296 | 14.5 | 20.9 | 0.00 | 0.15 | 0.10 | 90 | 996.9 |
| 20260905095601 | 12 | 310 | 12.9 | 20.9 | 0.00 | 0.15 | 0.10 | 90 | 996.4 |
| 20260905094658 | 12 | 308 | 12.9 | 17.7 | 0.00 | 0.15 | 0.10 | 90 | 996.4 |
| 20260905093548 | 12 | 322 | 12.9 | 17.7 | 0.00 | 0.15 | 0.10 | 93 | 996.4 |
| 20260905092648 | 12 | 325 | 12.9 | 17.7 | 0.03 | 0.15 | 0.10 | 94 | 996.5 |
| 20260905091748 | 12 | 310 | 12.9 | 20.9 | 0.10 | 0.15 | 0.10 | 93 | 996.0 |
| 20260905090848 | 12 | 331 | 11.3 | 17.7 | 0.10 | 0.15 | 0.10 | 95 | 996.0 |
| 20260905085948 | 11 | 325 | 11.3 | 17.7 | 0.10 | 0.15 | 0.10 | 95 | 996.2 |
| 20260905085305 | 12 | 319 | 12.9 | 20.9 | 0.10 | 0.15 | 0.10 | 96 | 996.1 |
| 20260905084359 | 11 | 317 | 9.7 | 17.7 | 0.10 | 0.15 | 0.10 | 97 | 995.9 |
| 20260905083248 | 11 | 320 | 9.7 | 12.9 | 0.10 | 0.15 | 0.10 | 96 | 995.9 |
| 20260905082348 | 11 | 350 | 8.0 | 12.9 | 0.03 | 0.10 | 0.03 | 95 | 995.9 |
| 20260905081448 | 12 | 328 | 4.8 | 9.7 | 0.00 | 0.05 | 0.00 | 94 | 995.7 |
| 20260905080548 | 12 | 329 | 9.7 | 14.5 | 0.00 | 0.05 | 0.00 | 95 | 995.7 |